• Join FlightAware (Why Join?)
  • Login
  • US Flag 
08:52PM EST


 

Airport Tracker/Info


-or-


 

Live Flight TrackerFlight Track Log ✈ N931PC ✈ 07-Jul-2013 ✈ KBPK - KCPS

Flight Track Log - Related Links

Times and Time Zones

All times are in EDT time to prevent confusion due to time zone crossing. See the N931PC flight status page for this flight to view local times or setup timezone preferences in your user account.

Time Position Orientation Groundspeed Altitude Reporting Facility
EDT Latitude Longitude Course Direction KTS MPH feet Rate Location/Type
07:09PM 36.4989 -92.3417 39° Northeast 142 163 4,700  Level Kansas City Center
07:10PM 36.5244 -92.3142 41° Northeast 124 143 5,200 480 Climbing Kansas City Center
07:11PM 36.5689 -92.2479 39° Northeast  Level FlightAware Approximate
07:11PM 36.5517 -92.2861 40° Northeast 125 144 5,700  Level Kansas City Center
07:12PM 36.6039 -92.2131 39° Northeast  Level FlightAware Approximate
07:12PM 36.5797 -92.2639 32° Northeast 116 133 6,200  Level Memphis Center
07:13PM 36.6053 -92.2336 44° Northeast 116 133 6,600 360 Climbing Memphis Center
07:14PM 36.6347 -92.2083 35° Northeast 121 139 7,000 180 Climbing Memphis Center
07:15PM 36.6694 -92.1669 44° Northeast 132 152 7,100  Climbing Kansas City Center
07:16PM 36.7028 -92.1328 39° Northeast 142 163 7,100  Level Kansas City Center
07:17PM 36.7378 -92.0953 41° Northeast 152 175 7,100  Level Kansas City Center
07:18PM 36.7744 -92.0583 39° Northeast 160 184 7,100  Level Kansas City Center
07:19PM 36.8092 -92.0208 41° Northeast 163 188 7,100  Level Kansas City Center
07:20PM 36.8444 -91.9847 39° Northeast 164 189 7,100 -60 Level Kansas City Center
07:21PM 36.8869 -91.9406 40° Northeast 165 190 7,000 -60 Descending Kansas City Center
07:22PM 36.9222 -91.9053 39° Northeast 164 189 7,000  Level Kansas City Center
07:23PM 36.9578 -91.8681 40° Northeast 164 189 7,000  Level Kansas City Center
07:24PM 36.9931 -91.8317 39° Northeast 165 190 7,000  Level Kansas City Center
07:25PM 37.0275 -91.7958 40° Northeast 163 188 7,000  Level Kansas City Center
07:26PM 37.0625 -91.7597 39° Northeast 163 188 7,000  Level Kansas City Center
07:27PM 37.0978 -91.7239 39° Northeast 163 188 7,000  Level Kansas City Center
07:28PM 37.1339 -91.6872 39° Northeast 165 190 7,000  Level Kansas City Center
07:29PM 37.1769 -91.6417 40° Northeast 168 193 7,000  Level Kansas City Center
07:30PM 37.2117 -91.6053 40° Northeast 164 189 7,000  Level Kansas City Center
07:31PM 37.2464 -91.5689 40° Northeast 163 188 7,000  Level Kansas City Center
07:32PM 37.2819 -91.5319 40° Northeast 164 189 7,000  Level Kansas City Center
07:33PM 37.3169 -91.4950 40° Northeast 164 189 7,000  Level Kansas City Center
07:35PM 37.3517 -91.4589 40° Northeast 164 189 7,000  Level Kansas City Center
07:36PM 37.3867 -91.4219 40° Northeast 164 189 7,000  Level Kansas City Center
07:37PM 37.4231 -91.3844 39° Northeast 166 191 7,000  Level Kansas City Center
07:38PM 37.4650 -91.3403 40° Northeast 165 190 7,000  Level Kansas City Center
07:39PM 37.5008 -91.3031 39° Northeast 167 192 7,000  Level Kansas City Center
07:40PM 37.5347 -91.2667 40° Northeast 163 188 7,000  Level Kansas City Center
07:41PM 37.5703 -91.2306 39° Northeast 163 188 7,000  Level Kansas City Center
07:42PM 37.6047 -91.1931 41° Northeast 164 189 7,000  Level Kansas City Center
07:43PM 37.6389 -91.1572 40° Northeast 161 185 7,000  Level Kansas City Center
07:44PM 37.6744 -91.1200 40° Northeast 164 189 7,000  Level Kansas City Center
07:45PM 37.7089 -91.0833 40° Northeast 163 188 7,000  Level Kansas City Center
07:46PM 37.7439 -91.0469 39° Northeast 161 185 7,100  Climbing Kansas City Center
07:47PM 37.7775 -91.0092 42° Northeast 161 185 7,100 -60 Level Kansas City Center
07:48PM 37.8203 -90.9653 39° Northeast 164 189 7,000 -300 Descending Kansas City Center
07:49PM 37.8578 -90.9261 40° Northeast 173 199 6,500 -480 Descending Kansas City Center
07:50PM 37.8972 -90.8847 40° Northeast 181 208 6,100 -420 Descending Kansas City Center
07:51PM 37.9358 -90.8422 41° Northeast 184 212 5,700 -480 Descending Kansas City Center
07:52PM 37.9772 -90.8044 36° Northeast 184 212 5,200 -300 Descending Kansas City Center
07:53PM 38.0142 -90.7661 39° Northeast 176 203 5,100 -60 Descending Kansas City Center
07:54PM 38.0486 -90.7281 41° Northeast 169 194 5,100  Level Kansas City Center
07:55PM 38.0883 -90.6836 41° Northeast 162 186 5,100  Level Kansas City Center
07:56PM 38.1214 -90.6447 43° Northeast 162 186 5,100  Level Kansas City Center
07:57PM 38.1558 -90.6089 39° Northeast 161 185 5,100  Level Kansas City Center
07:58PM 38.1906 -90.5706 41° Northeast 163 188 5,100  Level Kansas City Center
07:59PM 38.2236 -90.5319 43° Northeast 163 188 5,100  Level Kansas City Center
08:00PM 38.2575 -90.4925 42° Northeast 163 188 5,100  Level Kansas City Center
08:01PM 38.2994 -90.4478 40° Northeast 164 189 5,100 -180 Level Kansas City Center
08:02PM 38.3369 -90.4122 37° Northeast 166 191 4,800 -360 Descending Kansas City Center
08:03PM 38.3744 -90.3703 41° Northeast 172 198 4,400 -480 Descending Kansas City Center
08:04PM 38.4125 -90.3261 42° Northeast 179 206 3,900 -540 Descending Kansas City Center
08:05PM 38.4528 -90.2867 37° Northeast 182 209 3,400 -540 Descending Kansas City Center
08:06PM 38.4972 -90.2525 31° Northeast 184 212 2,800 -780 Descending Kansas City Center
08:07PM 38.5436 -90.2239 26° Northeast 186 214 1,900 -900 Descending Kansas City Center
08:08PM 38.5800 -90.1842 40° Northeast 153 176 1,000 -660 Descending Kansas City Center
08:09PM 38.5708 -90.1539 111° Southeast 130 150 600 -420 Descending Kansas City Center
08:11PM 38.5704 -90.1551 144° Southeast  Level Estimated
08:18PM 38.5667 -90.1500 38° Northeast  Level FlightAware Approximate
08:19PM 38.5704 -90.1551 38° Northeast  Level Estimated
08:20PM 38.5667 -90.1500 38° Northeast  Level FlightAware Approximate